sensor_id;sensor_type;location;lat;lon;timestamp;pressure;altitude;pressure_sealevel;temperature;humidity
75852;BME280;64500;52.632;20.656;2022-12-17T00:00:19;100573.29;;;-0.09;77.56
75852;BME280;64500;52.632;20.656;2022-12-17T00:03:19;100574.27;;;-0.11;77.75
75852;BME280;64500;52.632;20.656;2022-12-17T00:06:05;100579.45;;;-0.13;77.57
75852;BME280;64500;52.632;20.656;2022-12-17T00:08:50;100581.56;;;-0.12;77.50
75852;BME280;64500;52.632;20.656;2022-12-17T00:11:36;100585.02;;;-0.13;77.46
75852;BME280;64500;52.632;20.656;2022-12-17T00:14:21;100590.77;;;-0.12;77.86
75852;BME280;64500;52.632;20.656;2022-12-17T00:17:06;100594.14;;;-0.09;77.54
75852;BME280;64500;52.632;20.656;2022-12-17T00:19:52;100594.88;;;-0.07;77.64
75852;BME280;64500;52.632;20.656;2022-12-17T00:22:37;100592.45;;;-0.07;77.37
75852;BME280;64500;52.632;20.656;2022-12-17T00:25:23;100589.88;;;-0.05;77.32
75852;BME280;64500;52.632;20.656;2022-12-17T00:28:10;100585.88;;;-0.05;77.27
75852;BME280;64500;52.632;20.656;2022-12-17T00:30:56;100581.48;;;-0.08;77.35
75852;BME280;64500;52.632;20.656;2022-12-17T00:33:42;100576.30;;;-0.07;77.49
75852;BME280;64500;52.632;20.656;2022-12-17T00:36:28;100579.17;;;-0.10;77.43
75852;BME280;64500;52.632;20.656;2022-12-17T00:39:13;100578.42;;;-0.12;77.44
75852;BME280;64500;52.632;20.656;2022-12-17T00:41:59;100578.59;;;-0.13;77.34
75852;BME280;64500;52.632;20.656;2022-12-17T00:44:44;100580.47;;;-0.14;77.61
75852;BME280;64500;52.632;20.656;2022-12-17T00:47:30;100582.23;;;-0.13;77.33
75852;BME280;64500;52.632;20.656;2022-12-17T00:50:15;100592.84;;;-0.13;77.40
75852;BME280;64500;52.632;20.656;2022-12-17T00:53:01;100594.64;;;-0.10;77.31
75852;BME280;64500;52.632;20.656;2022-12-17T00:55:46;100597.11;;;-0.08;77.44
75852;BME280;64500;52.632;20.656;2022-12-17T00:58:31;100599.35;;;-0.10;77.23
75852;BME280;64500;52.632;20.656;2022-12-17T01:01:17;100603.31;;;-0.11;77.47
75852;BME280;64500;52.632;20.656;2022-12-17T01:04:02;100609.84;;;-0.14;77.21
75852;BME280;64500;52.632;20.656;2022-12-17T01:06:48;100611.14;;;-0.18;77.08
75852;BME280;64500;52.632;20.656;2022-12-17T01:09:33;100608.10;;;-0.22;77.42
75852;BME280;64500;52.632;20.656;2022-12-17T01:12:19;100608.20;;;-0.25;77.61
75852;BME280;64500;52.632;20.656;2022-12-17T01:15:05;100614.77;;;-0.27;77.57
75852;BME280;64500;52.632;20.656;2022-12-17T01:17:51;100618.37;;;-0.29;77.19
75852;BME280;64500;52.632;20.656;2022-12-17T01:20:37;100621.01;;;-0.27;77.46
75852;BME280;64500;52.632;20.656;2022-12-17T01:23:22;100627.51;;;-0.24;77.59
75852;BME280;64500;52.632;20.656;2022-12-17T01:26:08;100625.86;;;-0.20;77.24
75852;BME280;64500;52.632;20.656;2022-12-17T01:28:56;100619.11;;;-0.19;77.55
75852;BME280;64500;52.632;20.656;2022-12-17T01:31:52;100626.05;;;-0.19;77.52
75852;BME280;64500;52.632;20.656;2022-12-17T01:34:38;100633.00;;;-0.19;77.56
75852;BME280;64500;52.632;20.656;2022-12-17T01:37:24;100631.40;;;-0.21;77.22
75852;BME280;64500;52.632;20.656;2022-12-17T01:40:10;100632.16;;;-0.26;77.31
75852;BME280;64500;52.632;20.656;2022-12-17T01:42:55;100626.02;;;-0.28;77.50
75852;BME280;64500;52.632;20.656;2022-12-17T01:45:44;100628.40;;;-0.31;77.46
75852;BME280;64500;52.632;20.656;2022-12-17T01:48:52;100632.73;;;-0.31;77.45
75852;BME280;64500;52.632;20.656;2022-12-17T01:51:37;100637.64;;;-0.29;77.20
75852;BME280;64500;52.632;20.656;2022-12-17T01:54:23;100642.17;;;-0.28;77.60
75852;BME280;64500;52.632;20.656;2022-12-17T01:57:08;100649.84;;;-0.28;77.37
75852;BME280;64500;52.632;20.656;2022-12-17T02:00:00;100655.42;;;-0.27;77.29
75852;BME280;64500;52.632;20.656;2022-12-17T02:02:47;100651.42;;;-0.27;77.43
75852;BME280;64500;52.632;20.656;2022-12-17T02:05:40;100649.15;;;-0.27;77.36
75852;BME280;64500;52.632;20.656;2022-12-17T02:14:58;100645.10;;;-0.37;77.59
75852;BME280;64500;52.632;20.656;2022-12-17T02:17:50;100644.23;;;-0.37;77.31
75852;BME280;64500;52.632;20.656;2022-12-17T02:20:44;100643.57;;;-0.35;77.31
75852;BME280;64500;52.632;20.656;2022-12-17T02:26:35;100648.08;;;-0.35;77.15
75852;BME280;64500;52.632;20.656;2022-12-17T02:29:26;100655.23;;;-0.34;77.42
75852;BME280;64500;52.632;20.656;2022-12-17T02:32:14;100654.67;;;-0.35;77.48
75852;BME280;64500;52.632;20.656;2022-12-17T02:35:03;100659.17;;;-0.36;77.36
75852;BME280;64500;52.632;20.656;2022-12-17T02:37:51;100663.62;;;-0.39;77.11
75852;BME280;64500;52.632;20.656;2022-12-17T02:40:37;100660.27;;;-0.41;77.24
75852;BME280;64500;52.632;20.656;2022-12-17T02:43:24;100659.05;;;-0.41;77.41
75852;BME280;64500;52.632;20.656;2022-12-17T02:46:11;100663.79;;;-0.39;77.56
75852;BME280;64500;52.632;20.656;2022-12-17T02:48:57;100664.50;;;-0.39;77.37
75852;BME280;64500;52.632;20.656;2022-12-17T02:51:43;100659.86;;;-0.37;77.59
75852;BME280;64500;52.632;20.656;2022-12-17T02:54:31;100665.27;;;-0.35;77.24
75852;BME280;64500;52.632;20.656;2022-12-17T02:57:17;100668.05;;;-0.35;77.15
75852;BME280;64500;52.632;20.656;2022-12-17T03:00:04;100667.05;;;-0.34;77.23
75852;BME280;64500;52.632;20.656;2022-12-17T03:02:49;100663.40;;;-0.34;77.34
75852;BME280;64500;52.632;20.656;2022-12-17T03:05:35;100657.64;;;-0.35;77.13
75852;BME280;64500;52.632;20.656;2022-12-17T03:08:21;100658.25;;;-0.39;77.22
75852;BME280;64500;52.632;20.656;2022-12-17T03:11:06;100655.70;;;-0.43;77.14
75852;BME280;64500;52.632;20.656;2022-12-17T03:13:51;100653.08;;;-0.44;77.29
75852;BME280;64500;52.632;20.656;2022-12-17T03:16:37;100648.91;;;-0.44;77.22
75852;BME280;64500;52.632;20.656;2022-12-17T03:19:23;100649.92;;;-0.46;77.25
75852;BME280;64500;52.632;20.656;2022-12-17T03:22:08;100655.89;;;-0.43;77.49
75852;BME280;64500;52.632;20.656;2022-12-17T03:24:54;100650.83;;;-0.44;77.56
75852;BME280;64500;52.632;20.656;2022-12-17T03:27:40;100658.28;;;-0.44;77.07
75852;BME280;64500;52.632;20.656;2022-12-17T03:30:26;100658.45;;;-0.45;76.88
75852;BME280;64500;52.632;20.656;2022-12-17T03:33:12;100656.63;;;-0.48;77.10
75852;BME280;64500;52.632;20.656;2022-12-17T03:35:58;100654.61;;;-0.52;76.87
75852;BME280;64500;52.632;20.656;2022-12-17T03:38:43;100661.43;;;-0.57;77.02
75852;BME280;64500;52.632;20.656;2022-12-17T03:41:29;100672.27;;;-0.61;77.20
75852;BME280;64500;52.632;20.656;2022-12-17T03:44:14;100668.16;;;-0.66;77.22
75852;BME280;64500;52.632;20.656;2022-12-17T03:47:00;100669.83;;;-0.69;76.95
75852;BME280;64500;52.632;20.656;2022-12-17T03:49:45;100673.63;;;-0.69;76.94
75852;BME280;64500;52.632;20.656;2022-12-17T03:52:31;100671.56;;;-0.69;77.27
75852;BME280;64500;52.632;20.656;2022-12-17T03:55:17;100670.67;;;-0.70;77.15
75852;BME280;64500;52.632;20.656;2022-12-17T03:58:02;100666.35;;;-0.69;77.44
75852;BME280;64500;52.632;20.656;2022-12-17T04:00:48;100664.60;;;-0.69;77.26
75852;BME280;64500;52.632;20.656;2022-12-17T04:03:33;100662.95;;;-0.73;76.99
75852;BME280;64500;52.632;20.656;2022-12-17T04:06:18;100659.77;;;-0.75;77.03
75852;BME280;64500;52.632;20.656;2022-12-17T04:09:03;100654.48;;;-0.77;76.91
75852;BME280;64500;52.632;20.656;2022-12-17T04:11:49;100657.19;;;-0.80;76.83
75852;BME280;64500;52.632;20.656;2022-12-17T04:14:35;100659.98;;;-0.80;76.80
75852;BME280;64500;52.632;20.656;2022-12-17T04:17:20;100667.28;;;-0.79;76.87
75852;BME280;64500;52.632;20.656;2022-12-17T04:20:10;100668.48;;;-0.80;76.91
75852;BME280;64500;52.632;20.656;2022-12-17T04:22:56;100674.37;;;-0.81;76.83
75852;BME280;64500;52.632;20.656;2022-12-17T04:25:41;100680.58;;;-0.82;77.29
75852;BME280;64500;52.632;20.656;2022-12-17T04:28:26;100684.20;;;-0.83;77.27
75852;BME280;64500;52.632;20.656;2022-12-17T04:31:13;100683.61;;;-0.86;77.11
75852;BME280;64500;52.632;20.656;2022-12-17T04:33:58;100682.50;;;-0.88;76.78
75852;BME280;64500;52.632;20.656;2022-12-17T04:36:44;100683.14;;;-0.90;77.08
75852;BME280;64500;52.632;20.656;2022-12-17T04:39:30;100681.05;;;-0.90;77.13
75852;BME280;64500;52.632;20.656;2022-12-17T04:42:15;100684.36;;;-0.90;77.27
75852;BME280;64500;52.632;20.656;2022-12-17T04:45:01;100692.89;;;-0.89;77.03
75852;BME280;64500;52.632;20.656;2022-12-17T04:47:46;100700.11;;;-0.91;76.65
75852;BME280;64500;52.632;20.656;2022-12-17T04:50:32;100707.03;;;-0.92;77.29
75852;BME280;64500;52.632;20.656;2022-12-17T04:53:17;100714.96;;;-0.94;76.90
75852;BME280;64500;52.632;20.656;2022-12-17T04:56:02;100725.65;;;-0.96;76.77
75852;BME280;64500;52.632;20.656;2022-12-17T04:58:48;100742.41;;;-0.98;76.81
75852;BME280;64500;52.632;20.656;2022-12-17T05:01:34;100753.13;;;-1.01;77.04
75852;BME280;64500;52.632;20.656;2022-12-17T05:04:19;100760.19;;;-1.02;77.01
75852;BME280;64500;52.632;20.656;2022-12-17T05:07:05;100763.31;;;-1.02;77.42
75852;BME280;64500;52.632;20.656;2022-12-17T05:09:51;100773.89;;;-1.02;77.32
75852;BME280;64500;52.632;20.656;2022-12-17T05:12:37;100778.63;;;-1.01;77.37
75852;BME280;64500;52.632;20.656;2022-12-17T05:15:22;100781.48;;;-0.98;77.39
75852;BME280;64500;52.632;20.656;2022-12-17T05:18:08;100786.33;;;-0.98;77.09
75852;BME280;64500;52.632;20.656;2022-12-17T05:20:54;100797.61;;;-0.98;77.17
75852;BME280;64500;52.632;20.656;2022-12-17T05:23:40;100797.06;;;-0.99;77.20
75852;BME280;64500;52.632;20.656;2022-12-17T05:26:27;100800.88;;;-0.99;77.21
75852;BME280;64500;52.632;20.656;2022-12-17T05:29:13;100804.69;;;-1.00;77.40
75852;BME280;64500;52.632;20.656;2022-12-17T05:31:59;100807.13;;;-0.99;77.23
75852;BME280;64500;52.632;20.656;2022-12-17T05:34:44;100810.27;;;-0.99;76.98
75852;BME280;64500;52.632;20.656;2022-12-17T05:37:30;100806.96;;;-0.98;77.08
75852;BME280;64500;52.632;20.656;2022-12-17T05:40:16;100806.14;;;-0.98;77.03
75852;BME280;64500;52.632;20.656;2022-12-17T05:43:04;100806.98;;;-0.98;76.89
75852;BME280;64500;52.632;20.656;2022-12-17T05:45:50;100801.93;;;-0.99;76.99
75852;BME280;64500;52.632;20.656;2022-12-17T05:48:36;100800.71;;;-0.99;77.01
75852;BME280;64500;52.632;20.656;2022-12-17T05:51:22;100801.93;;;-0.99;77.02
75852;BME280;64500;52.632;20.656;2022-12-17T05:54:24;100807.83;;;-0.99;77.06
75852;BME280;64500;52.632;20.656;2022-12-17T05:57:10;100807.27;;;-1.01;77.14
75852;BME280;64500;52.632;20.656;2022-12-17T05:59:56;100807.55;;;-1.02;76.82
75852;BME280;64500;52.632;20.656;2022-12-17T06:02:41;100812.34;;;-1.04;76.90
75852;BME280;64500;52.632;20.656;2022-12-17T06:05:27;100817.00;;;-1.06;77.00
75852;BME280;64500;52.632;20.656;2022-12-17T06:08:13;100820.41;;;-1.08;76.95
75852;BME280;64500;52.632;20.656;2022-12-17T06:10:59;100820.02;;;-1.09;76.96
75852;BME280;64500;52.632;20.656;2022-12-17T06:13:46;100819.10;;;-1.11;77.36
75852;BME280;64500;52.632;20.656;2022-12-17T06:16:31;100815.06;;;-1.13;76.88
75852;BME280;64500;52.632;20.656;2022-12-17T06:19:17;100815.86;;;-1.15;76.88
75852;BME280;64500;52.632;20.656;2022-12-17T06:22:02;100810.97;;;-1.16;76.92
75852;BME280;64500;52.632;20.656;2022-12-17T06:24:48;100809.06;;;-1.17;77.05
75852;BME280;64500;52.632;20.656;2022-12-17T06:27:34;100804.91;;;-1.16;77.23
75852;BME280;64500;52.632;20.656;2022-12-17T06:30:19;100805.57;;;-1.17;76.79
75852;BME280;64500;52.632;20.656;2022-12-17T06:33:06;100809.55;;;-1.17;77.08
75852;BME280;64500;52.632;20.656;2022-12-17T06:35:54;100819.92;;;-1.19;77.19
75852;BME280;64500;52.632;20.656;2022-12-17T06:38:40;100825.96;;;-1.19;77.02
75852;BME280;64500;52.632;20.656;2022-12-17T06:41:26;100833.91;;;-1.20;77.01
75852;BME280;64500;52.632;20.656;2022-12-17T06:44:11;100832.14;;;-1.22;77.05
75852;BME280;64500;52.632;20.656;2022-12-17T06:46:57;100838.17;;;-1.23;76.87
75852;BME280;64500;52.632;20.656;2022-12-17T06:49:43;100840.05;;;-1.24;76.95
75852;BME280;64500;52.632;20.656;2022-12-17T06:52:29;100838.96;;;-1.25;76.87
75852;BME280;64500;52.632;20.656;2022-12-17T06:55:14;100839.30;;;-1.26;76.94
75852;BME280;64500;52.632;20.656;2022-12-17T06:58:00;100838.60;;;-1.26;76.92
75852;BME280;64500;52.632;20.656;2022-12-17T07:00:46;100831.38;;;-1.29;76.86
75852;BME280;64500;52.632;20.656;2022-12-17T07:03:31;100839.80;;;-1.32;77.07
75852;BME280;64500;52.632;20.656;2022-12-17T07:06:17;100846.21;;;-1.37;77.02
75852;BME280;64500;52.632;20.656;2022-12-17T07:09:02;100849.85;;;-1.38;77.00
75852;BME280;64500;52.632;20.656;2022-12-17T07:11:48;100853.25;;;-1.40;77.08
75852;BME280;64500;52.632;20.656;2022-12-17T07:14:33;100865.64;;;-1.42;77.03
75852;BME280;64500;52.632;20.656;2022-12-17T07:17:19;100881.03;;;-1.44;77.07
75852;BME280;64500;52.632;20.656;2022-12-17T07:20:05;100888.80;;;-1.45;76.83
75852;BME280;64500;52.632;20.656;2022-12-17T07:22:55;100894.91;;;-1.43;77.05
75852;BME280;64500;52.632;20.656;2022-12-17T07:25:40;100905.25;;;-1.40;77.22
75852;BME280;64500;52.632;20.656;2022-12-17T07:28:26;100911.92;;;-1.38;77.34
75852;BME280;64500;52.632;20.656;2022-12-17T07:31:11;100910.40;;;-1.36;76.94
75852;BME280;64500;52.632;20.656;2022-12-17T07:33:57;100904.33;;;-1.36;77.26
75852;BME280;64500;52.632;20.656;2022-12-17T07:36:43;100901.55;;;-1.37;77.43
75852;BME280;64500;52.632;20.656;2022-12-17T07:39:28;100899.46;;;-1.37;77.34
75852;BME280;64500;52.632;20.656;2022-12-17T07:42:14;100910.67;;;-1.39;77.17
75852;BME280;64500;52.632;20.656;2022-12-17T07:45:00;100918.22;;;-1.41;77.05
75852;BME280;64500;52.632;20.656;2022-12-17T07:47:53;100926.33;;;-1.42;77.14
75852;BME280;64500;52.632;20.656;2022-12-17T07:50:39;100927.88;;;-1.43;77.12
75852;BME280;64500;52.632;20.656;2022-12-17T07:53:24;100930.43;;;-1.44;76.92
75852;BME280;64500;52.632;20.656;2022-12-17T07:56:10;100936.61;;;-1.46;76.70
75852;BME280;64500;52.632;20.656;2022-12-17T07:58:55;100936.92;;;-1.47;77.03
75852;BME280;64500;52.632;20.656;2022-12-17T08:01:41;100939.14;;;-1.48;76.69
75852;BME280;64500;52.632;20.656;2022-12-17T08:04:27;100942.35;;;-1.51;77.07
75852;BME280;64500;52.632;20.656;2022-12-17T08:07:12;100941.94;;;-1.52;77.11
75852;BME280;64500;52.632;20.656;2022-12-17T08:09:58;100940.48;;;-1.55;77.24
75852;BME280;64500;52.632;20.656;2022-12-17T08:12:55;100937.83;;;-1.57;77.00
75852;BME280;64500;52.632;20.656;2022-12-17T08:15:40;100936.73;;;-1.58;76.83
75852;BME280;64500;52.632;20.656;2022-12-17T08:18:26;100938.20;;;-1.56;77.02
75852;BME280;64500;52.632;20.656;2022-12-17T08:21:12;100943.63;;;-1.54;76.90
75852;BME280;64500;52.632;20.656;2022-12-17T08:23:58;100946.95;;;-1.53;76.92
75852;BME280;64500;52.632;20.656;2022-12-17T08:26:43;100947.14;;;-1.53;77.06
75852;BME280;64500;52.632;20.656;2022-12-17T08:29:29;100950.19;;;-1.55;76.86
75852;BME280;64500;52.632;20.656;2022-12-17T08:32:15;100951.14;;;-1.58;76.72
75852;BME280;64500;52.632;20.656;2022-12-17T08:35:01;100955.35;;;-1.62;76.74
75852;BME280;64500;52.632;20.656;2022-12-17T08:37:46;100959.27;;;-1.64;76.84
75852;BME280;64500;52.632;20.656;2022-12-17T08:40:32;100959.44;;;-1.63;76.93
75852;BME280;64500;52.632;20.656;2022-12-17T08:43:17;100962.35;;;-1.65;77.12
75852;BME280;64500;52.632;20.656;2022-12-17T08:46:03;100958.02;;;-1.64;76.74
75852;BME280;64500;52.632;20.656;2022-12-17T08:48:49;100962.88;;;-1.64;77.13
75852;BME280;64500;52.632;20.656;2022-12-17T08:51:35;100967.98;;;-1.63;77.02
75852;BME280;64500;52.632;20.656;2022-12-17T08:54:20;100977.00;;;-1.62;76.97
75852;BME280;64500;52.632;20.656;2022-12-17T08:57:06;100977.63;;;-1.64;76.66
75852;BME280;64500;52.632;20.656;2022-12-17T08:59:51;100975.81;;;-1.66;76.93
75852;BME280;64500;52.632;20.656;2022-12-17T09:02:37;100973.46;;;-1.69;76.72
75852;BME280;64500;52.632;20.656;2022-12-17T09:05:23;100976.14;;;-1.72;76.91
75852;BME280;64500;52.632;20.656;2022-12-17T09:08:26;100978.48;;;-1.73;76.85
75852;BME280;64500;52.632;20.656;2022-12-17T09:11:11;100976.55;;;-1.74;77.14
75852;BME280;64500;52.632;20.656;2022-12-17T09:13:57;100975.41;;;-1.73;77.15
75852;BME280;64500;52.632;20.656;2022-12-17T09:16:44;100969.42;;;-1.70;77.18
75852;BME280;64500;52.632;20.656;2022-12-17T09:19:29;100972.86;;;-1.66;77.27
75852;BME280;64500;52.632;20.656;2022-12-17T09:22:15;100978.64;;;-1.65;77.18
75852;BME280;64500;52.632;20.656;2022-12-17T09:25:01;100979.32;;;-1.65;77.14
75852;BME280;64500;52.632;20.656;2022-12-17T09:27:47;100983.26;;;-1.66;76.83
75852;BME280;64500;52.632;20.656;2022-12-17T09:30:32;100983.55;;;-1.68;77.14
75852;BME280;64500;52.632;20.656;2022-12-17T09:33:18;100985.41;;;-1.69;77.23
75852;BME280;64500;52.632;20.656;2022-12-17T09:36:04;100990.43;;;-1.69;77.15
75852;BME280;64500;52.632;20.656;2022-12-17T09:38:50;100996.70;;;-1.68;77.22
75852;BME280;64500;52.632;20.656;2022-12-17T09:50:30;101013.90;;;-1.58;77.54
75852;BME280;64500;52.632;20.656;2022-12-17T09:53:23;101014.10;;;-1.57;77.23
75852;BME280;64500;52.632;20.656;2022-12-17T09:56:12;101012.89;;;-1.57;77.32
75852;BME280;64500;52.632;20.656;2022-12-17T09:58:59;101014.40;;;-1.58;76.96
75852;BME280;64500;52.632;20.656;2022-12-17T10:01:45;101016.98;;;-1.58;77.37
75852;BME280;64500;52.632;20.656;2022-12-17T10:04:39;101013.84;;;-1.60;76.86
75852;BME280;64500;52.632;20.656;2022-12-17T10:07:30;101012.98;;;-1.59;77.26
75852;BME280;64500;52.632;20.656;2022-12-17T10:10:23;101010.20;;;-1.59;77.08
75852;BME280;64500;52.632;20.656;2022-12-17T10:13:15;101014.27;;;-1.57;77.54
75852;BME280;64500;52.632;20.656;2022-12-17T10:16:01;101022.52;;;-1.54;77.67
75852;BME280;64500;52.632;20.656;2022-12-17T10:18:48;101024.90;;;-1.50;77.28
75852;BME280;64500;52.632;20.656;2022-12-17T10:21:35;101023.26;;;-1.47;77.40
75852;BME280;64500;52.632;20.656;2022-12-17T10:24:23;101024.33;;;-1.47;77.26
75852;BME280;64500;52.632;20.656;2022-12-17T10:27:10;101026.47;;;-1.45;77.30
75852;BME280;64500;52.632;20.656;2022-12-17T10:29:55;101031.60;;;-1.42;77.41
75852;BME280;64500;52.632;20.656;2022-12-17T10:32:41;101036.16;;;-1.40;77.46
75852;BME280;64500;52.632;20.656;2022-12-17T10:35:36;101043.31;;;-1.39;77.12
75852;BME280;64500;52.632;20.656;2022-12-17T10:38:27;101045.39;;;-1.40;77.16
75852;BME280;64500;52.632;20.656;2022-12-17T10:41:25;101052.84;;;-1.39;77.21
75852;BME280;64500;52.632;20.656;2022-12-17T10:44:37;101056.69;;;-1.39;77.22
75852;BME280;64500;52.632;20.656;2022-12-17T10:47:25;101050.14;;;-1.38;77.01
75852;BME280;64500;52.632;20.656;2022-12-17T10:50:14;101054.75;;;-1.39;77.19
75852;BME280;64500;52.632;20.656;2022-12-17T10:53:01;101054.81;;;-1.38;77.07
75852;BME280;64500;52.632;20.656;2022-12-17T10:55:55;101060.91;;;-1.37;77.03
75852;BME280;64500;52.632;20.656;2022-12-17T10:58:49;101074.48;;;-1.36;76.96
75852;BME280;64500;52.632;20.656;2022-12-17T11:01:38;101072.93;;;-1.35;77.04
75852;BME280;64500;52.632;20.656;2022-12-17T11:04:29;101068.11;;;-1.35;77.35
75852;BME280;64500;52.632;20.656;2022-12-17T11:07:37;101073.33;;;-1.34;77.01
75852;BME280;64500;52.632;20.656;2022-12-17T11:10:30;101073.95;;;-1.36;77.11
75852;BME280;64500;52.632;20.656;2022-12-17T11:13:21;101075.35;;;-1.41;77.34
75852;BME280;64500;52.632;20.656;2022-12-17T11:16:20;101070.20;;;-1.44;77.00
75852;BME280;64500;52.632;20.656;2022-12-17T11:21:59;101070.14;;;-1.46;77.06
75852;BME280;64500;52.632;20.656;2022-12-17T11:25:00;101066.67;;;-1.46;77.14
75852;BME280;64500;52.632;20.656;2022-12-17T11:27:55;101068.17;;;-1.42;77.05
75852;BME280;64500;52.632;20.656;2022-12-17T11:30:50;101069.14;;;-1.40;77.28
75852;BME280;64500;52.632;20.656;2022-12-17T11:33:44;101059.50;;;-1.37;77.18
75852;BME280;64500;52.632;20.656;2022-12-17T11:36:50;101060.42;;;-1.36;77.30
75852;BME280;64500;52.632;20.656;2022-12-17T11:39:59;101070.34;;;-1.35;77.15
75852;BME280;64500;52.632;20.656;2022-12-17T11:43:04;101078.16;;;-1.35;77.26
75852;BME280;64500;52.632;20.656;2022-12-17T11:52:00;101085.69;;;-1.38;77.40
75852;BME280;64500;52.632;20.656;2022-12-17T11:57:50;101096.70;;;-1.35;77.24
75852;BME280;64500;52.632;20.656;2022-12-17T12:01:33;101102.52;;;-1.32;77.26
75852;BME280;64500;52.632;20.656;2022-12-17T12:10:45;101110.46;;;-1.28;77.39
75852;BME280;64500;52.632;20.656;2022-12-17T12:16:58;101116.42;;;-1.31;77.21
75852;BME280;64500;52.632;20.656;2022-12-17T12:22:46;101122.80;;;-1.38;76.96
75852;BME280;64500;52.632;20.656;2022-12-17T12:28:56;101113.52;;;-1.35;76.85
75852;BME280;64500;52.632;20.656;2022-12-17T12:32:26;101113.08;;;-1.33;76.78
75852;BME280;64500;52.632;20.656;2022-12-17T12:35:18;101118.17;;;-1.31;77.01
75852;BME280;64500;52.632;20.656;2022-12-17T12:38:15;101118.69;;;-1.31;76.70
75852;BME280;64500;52.632;20.656;2022-12-17T12:41:25;101124.81;;;-1.30;77.19
75852;BME280;64500;52.632;20.656;2022-12-17T12:44:21;101130.52;;;-1.30;76.89
75852;BME280;64500;52.632;20.656;2022-12-17T12:47:17;101137.33;;;-1.34;77.09
75852;BME280;64500;52.632;20.656;2022-12-17T12:50:49;101138.95;;;-1.37;76.82
75852;BME280;64500;52.632;20.656;2022-12-17T12:53:35;101140.77;;;-1.40;76.80
75852;BME280;64500;52.632;20.656;2022-12-17T12:56:35;101139.55;;;-1.39;76.80
75852;BME280;64500;52.632;20.656;2022-12-17T12:59:33;101137.74;;;-1.37;76.87
75852;BME280;64500;52.632;20.656;2022-12-17T13:05:54;101139.81;;;-1.37;76.86
75852;BME280;64500;52.632;20.656;2022-12-17T13:10:41;101143.75;;;-1.39;76.76
75852;BME280;64500;52.632;20.656;2022-12-17T13:15:46;101152.07;;;-1.44;76.37
75852;BME280;64500;52.632;20.656;2022-12-17T13:18:34;101154.17;;;-1.47;76.84
75852;BME280;64500;52.632;20.656;2022-12-17T13:23:42;101163.96;;;-1.50;76.68
75852;BME280;64500;52.632;20.656;2022-12-17T13:28:40;101171.21;;;-1.46;76.53
75852;BME280;64500;52.632;20.656;2022-12-17T13:31:18;101170.35;;;-1.46;76.90
75852;BME280;64500;52.632;20.656;2022-12-17T13:33:49;101177.65;;;-1.45;76.59
75852;BME280;64500;52.632;20.656;2022-12-17T13:39:35;101185.94;;;-1.46;76.57
75852;BME280;64500;52.632;20.656;2022-12-17T13:42:25;101189.50;;;-1.49;76.52
75852;BME280;64500;52.632;20.656;2022-12-17T13:44:55;101194.48;;;-1.50;76.78
75852;BME280;64500;52.632;20.656;2022-12-17T13:47:27;101192.48;;;-1.52;76.71
75852;BME280;64500;52.632;20.656;2022-12-17T13:49:58;101192.11;;;-1.53;76.98
75852;BME280;64500;52.632;20.656;2022-12-17T13:52:27;101198.52;;;-1.53;76.69
75852;BME280;64500;52.632;20.656;2022-12-17T13:55:06;101198.20;;;-1.52;76.67
75852;BME280;64500;52.632;20.656;2022-12-17T13:57:36;101196.40;;;-1.49;76.81
75852;BME280;64500;52.632;20.656;2022-12-17T14:00:04;101197.90;;;-1.47;76.49
75852;BME280;64500;52.632;20.656;2022-12-17T14:02:33;101205.77;;;-1.44;76.69
75852;BME280;64500;52.632;20.656;2022-12-17T14:05:03;101212.48;;;-1.42;76.99
75852;BME280;64500;52.632;20.656;2022-12-17T14:07:33;101216.23;;;-1.39;76.92
75852;BME280;64500;52.632;20.656;2022-12-17T14:10:01;101213.65;;;-1.38;76.59
75852;BME280;64500;52.632;20.656;2022-12-17T14:12:30;101213.45;;;-1.39;76.42
75852;BME280;64500;52.632;20.656;2022-12-17T14:15:03;101210.85;;;-1.39;76.50
75852;BME280;64500;52.632;20.656;2022-12-17T14:20:05;101214.42;;;-1.41;76.74
75852;BME280;64500;52.632;20.656;2022-12-17T14:22:38;101220.08;;;-1.42;76.62
75852;BME280;64500;52.632;20.656;2022-12-17T14:27:55;101222.70;;;-1.42;76.43
75852;BME280;64500;52.632;20.656;2022-12-17T14:32:51;101234.19;;;-1.37;76.88
75852;BME280;64500;52.632;20.656;2022-12-17T14:35:38;101235.92;;;-1.36;76.62
75852;BME280;64500;52.632;20.656;2022-12-17T14:38:16;101240.73;;;-1.38;76.72
75852;BME280;64500;52.632;20.656;2022-12-17T14:40:43;101240.83;;;-1.39;76.65
75852;BME280;64500;52.632;20.656;2022-12-17T14:43:12;101244.44;;;-1.40;76.75
75852;BME280;64500;52.632;20.656;2022-12-17T14:45:59;101241.39;;;-1.43;76.54
75852;BME280;64500;52.632;20.656;2022-12-17T14:48:52;101238.28;;;-1.47;76.36
75852;BME280;64500;52.632;20.656;2022-12-17T14:51:37;101240.57;;;-1.50;76.32
75852;BME280;64500;52.632;20.656;2022-12-17T14:56:43;101244.98;;;-1.58;76.21
75852;BME280;64500;52.632;20.656;2022-12-17T14:59:39;101258.73;;;-1.61;76.34
75852;BME280;64500;52.632;20.656;2022-12-17T15:02:23;101263.02;;;-1.63;76.19
75852;BME280;64500;52.632;20.656;2022-12-17T15:04:52;101261.55;;;-1.64;76.18
75852;BME280;64500;52.632;20.656;2022-12-17T15:07:24;101263.56;;;-1.66;76.27
75852;BME280;64500;52.632;20.656;2022-12-17T15:09:53;101266.17;;;-1.70;76.28
75852;BME280;64500;52.632;20.656;2022-12-17T15:12:21;101271.25;;;-1.73;76.27
75852;BME280;64500;52.632;20.656;2022-12-17T15:14:49;101272.44;;;-1.74;76.19
75852;BME280;64500;52.632;20.656;2022-12-17T15:17:16;101274.09;;;-1.76;76.31
75852;BME280;64500;52.632;20.656;2022-12-17T15:19:44;101275.38;;;-1.78;76.39
75852;BME280;64500;52.632;20.656;2022-12-17T15:22:15;101278.88;;;-1.82;76.03
75852;BME280;64500;52.632;20.656;2022-12-17T15:24:43;101282.54;;;-1.86;76.36
75852;BME280;64500;52.632;20.656;2022-12-17T15:27:12;101286.44;;;-1.88;76.09
75852;BME280;64500;52.632;20.656;2022-12-17T15:29:40;101289.34;;;-1.89;76.18